Time;durP1;ratioP1;P1;durP2;ratioP2;P2;SDS_P1;SDS_P2;PMS_P1;PMS_P2;Temp;Humidity;BMP_temperature;BMP_pressure;BME280_temperature;BME280_humidity;BME280_pressure;Samples;Min_cycle;Max_cycle;Signal;HPM_P1;HPM_P2
2022/07/28 00:00:20;;;;;;;1.40;0.52;;;22.30;87.50;;;;;;4918834;29;20037;-78
2022/07/28 00:02:48;;;;;;;2.30;0.50;;;22.50;86.80;;;;;;4941935;29;20078;-85
2022/07/28 00:05:15;;;;;;;0.98;0.70;;;22.70;87.90;;;;;;4941413;28;20627;-78
2022/07/28 00:07:43;;;;;;;1.33;0.52;;;22.40;86.10;;;;;;4935203;28;20881;-78
2022/07/28 00:10:13;;;;;;;1.73;0.68;;;22.50;86.30;;;;;;4950632;28;20035;-82
2022/07/28 00:12:41;;;;;;;0.98;0.52;;;22.50;86.40;;;;;;4944245;29;20513;-79
2022/07/28 00:15:09;;;;;;;2.58;0.73;;;22.60;87.00;;;;;;4947670;28;20043;-88
2022/07/28 00:17:36;;;;;;;1.35;0.60;;;23.00;87.10;;;;;;4950566;28;20028;-83
2022/07/28 00:20:05;;;;;;;0.75;0.50;;;23.30;85.50;;;;;;4946103;28;20046;-77
2022/07/28 00:22:32;;;;;;;2.10;0.50;;;23.50;83.90;;;;;;4949167;28;20038;-78
2022/07/28 00:25:00;;;;;;;1.40;0.70;;;23.90;85.00;;;;;;4958474;28;20097;-78
2022/07/28 00:27:28;;;;;;;4.35;0.57;;;24.00;84.40;;;;;;4943638;28;20127;-78
2022/07/28 00:29:56;;;;;;;1.67;0.20;;;24.20;86.00;;;;;;4943471;28;20054;-79
2022/07/28 00:32:23;;;;;;;0.38;0.10;;;24.60;84.10;;;;;;4949695;28;20042;-79
2022/07/28 00:34:51;;;;;;;0.20;0.10;;;24.90;82.40;;;;;;4934480;29;20126;-80
2022/07/28 00:37:18;;;;;;;0.68;0.00;;;25.10;81.20;;;;;;4951337;28;20027;-79
2022/07/28 00:39:46;;;;;;;0.40;0.28;;;25.00;79.00;;;;;;4941792;28;20066;-82
2022/07/28 00:42:18;;;;;;;2.28;0.20;;;25.20;79.60;;;;;;4942978;28;20110;-80
2022/07/28 00:44:46;;;;;;;0.20;0.10;;;25.40;77.20;;;;;;4949124;29;20022;-79
2022/07/28 00:47:13;;;;;;;0.30;0.10;;;25.30;77.90;;;;;;4949925;28;20046;-79
2022/07/28 00:49:41;;;;;;;0.10;0.10;;;25.30;78.00;;;;;;4948549;28;20037;-78
2022/07/28 00:52:11;;;;;;;4.88;0.55;;;25.40;78.30;;;;;;4942380;28;20106;-80
2022/07/28 00:54:38;;;;;;;0.40;0.08;;;25.90;78.00;;;;;;4944896;28;20107;-79
2022/07/28 00:57:06;;;;;;;0.00;0.00;;;25.90;77.70;;;;;;4953595;28;20030;-78
2022/07/28 00:59:42;;;;;;;0.77;0.00;;;26.40;75.90;;;;;;4950421;28;20054;-81
2022/07/28 01:02:09;;;;;;;0.65;0.00;;;26.30;75.90;;;;;;4948251;28;20054;-78
2022/07/28 01:04:37;;;;;;;0.10;0.00;;;26.40;77.00;;;;;;4945835;28;20127;-80
2022/07/28 01:07:28;;;;;;;0.25;0.00;;;26.30;75.90;;;;;;4951700;28;20097;-78
2022/07/28 01:10:42;;;;;;;1.15;0.00;;;26.50;74.40;;;;;;4945337;28;20019;-81
2022/07/28 01:13:44;;;;;;;0.08;0.00;;;26.50;73.70;;;;;;4950689;28;20023;-78
2022/07/28 01:16:12;;;;;;;2.13;0.10;;;26.70;74.60;;;;;;4922390;28;20039;-77
2022/07/28 01:18:53;;;;;;;0.00;0.00;;;26.80;73.40;;;;;;4954595;28;20031;-80
2022/07/28 01:21:28;;;;;;;0.00;0.00;;;26.80;73.80;;;;;;4947253;28;20126;-79
2022/07/28 01:24:19;;;;;;;0.70;0.10;;;26.60;72.90;;;;;;4943678;28;20442;-80
2022/07/28 01:27:08;;;;;;;0.20;0.10;;;26.60;73.00;;;;;;4932673;28;20110;-79
2022/07/28 01:30:00;;;;;;;0.15;0.00;;;27.00;72.90;;;;;;4937461;29;20138;-79
2022/07/28 01:32:35;;;;;;;1.48;0.30;;;26.80;72.70;;;;;;4928892;29;20031;-83
2022/07/28 01:35:13;;;;;;;0.65;0.05;;;27.20;73.20;;;;;;4945656;28;20042;-80
2022/07/28 01:37:49;;;;;;;0.68;0.10;;;27.50;73.00;;;;;;4942411;28;20118;-79
2022/07/28 01:40:20;;;;;;;1.77;0.75;;;27.40;71.90;;;;;;4944899;28;20023;-84
2022/07/28 01:42:51;;;;;;;0.20;0.00;;;27.50;72.70;;;;;;4944017;28;20043;-81
2022/07/28 01:45:20;;;;;;;1.73;0.35;;;27.60;71.70;;;;;;4953109;28;20020;-76
2022/07/28 01:47:52;;;;;;;0.10;0.00;;;27.80;73.00;;;;;;4943667;28;20039;-78
2022/07/28 01:50:22;;;;;;;0.00;0.00;;;28.00;71.70;;;;;;4949775;28;20023;-76
2022/07/28 01:52:51;;;;;;;0.10;0.00;;;27.80;72.30;;;;;;4939418;29;20481;-76
2022/07/28 01:55:30;;;;;;;0.57;0.03;;;27.70;71.80;;;;;;4948364;28;20089;-83
2022/07/28 01:57:58;;;;;;;1.42;0.50;;;27.70;71.80;;;;;;4952981;29;20038;-75
2022/07/28 02:00:27;;;;;;;0.55;0.03;;;27.60;72.40;;;;;;4952564;28;20454;-74
2022/07/28 02:02:56;;;;;;;0.40;0.05;;;27.70;70.90;;;;;;4947727;28;20515;-72
2022/07/28 02:05:25;;;;;;;0.90;0.00;;;27.20;71.20;;;;;;4945702;28;20036;-72
2022/07/28 02:07:55;;;;;;;0.55;0.00;;;27.30;71.50;;;;;;4950309;28;20046;-73
2022/07/28 02:10:23;;;;;;;1.27;0.00;;;27.30;72.50;;;;;;4961494;28;20023;-71
2022/07/28 02:12:52;;;;;;;0.22;0.03;;;27.30;71.00;;;;;;4942137;28;20035;-73
2022/07/28 02:15:21;;;;;;;0.40;0.10;;;27.20;71.20;;;;;;4943063;28;20485;-72
2022/07/28 02:17:51;;;;;;;0.10;0.10;;;27.00;71.00;;;;;;4947072;28;20035;-72
2022/07/28 02:20:20;;;;;;;0.30;0.10;;;26.90;73.00;;;;;;4951455;28;20023;-74
2022/07/28 02:22:48;;;;;;;0.25;0.10;;;26.90;73.00;;;;;;4947764;28;20510;-72
2022/07/28 02:25:16;;;;;;;0.17;0.10;;;27.10;72.10;;;;;;4949134;28;20053;-74
2022/07/28 02:28:05;;;;;;;0.10;0.00;;;27.20;71.90;;;;;;4947180;28;20122;-73
2022/07/28 02:30:56;;;;;;;1.17;0.00;;;27.10;71.10;;;;;;4951169;28;20521;-77
2022/07/28 02:33:24;;;;;;;0.00;0.00;;;26.90;70.70;;;;;;4936991;28;20521;-76
2022/07/28 02:36:19;;;;;;;0.38;0.30;;;26.70;71.60;;;;;;4942224;28;20041;-73
2022/07/28 02:38:49;;;;;;;0.10;0.00;;;26.70;73.00;;;;;;4944287;28;20042;-78
2022/07/28 02:41:24;;;;;;;0.03;0.00;;;26.50;72.30;;;;;;4947563;28;20027;-80
2022/07/28 02:43:56;;;;;;;0.00;0.00;;;26.60;72.00;;;;;;4946160;28;20336;-74
2022/07/28 02:46:44;;;;;;;0.32;0.13;;;26.00;70.80;;;;;;4947572;28;20031;-77
2022/07/28 02:49:17;;;;;;;1.45;0.00;;;26.00;72.40;;;;;;4949733;29;20023;-74
2022/07/28 02:51:46;;;;;;;0.00;0.00;;;26.00;72.70;;;;;;4948981;28;20089;-77
2022/07/28 02:54:16;;;;;;;0.10;0.00;;;25.90;72.20;;;;;;4943200;29;20118;-75
2022/07/28 02:56:49;;;;;;;0.25;0.00;;;25.60;72.00;;;;;;4948111;28;20043;-75
2022/07/28 02:59:18;;;;;;;0.35;0.00;;;25.70;73.10;;;;;;4949839;29;20483;-76
2022/07/28 03:01:47;;;;;;;0.10;0.00;;;25.80;73.90;;;;;;4950312;28;20122;-73
2022/07/28 03:04:15;;;;;;;0.00;0.00;;;25.60;72.90;;;;;;4949749;28;20023;-76
2022/07/28 03:06:43;;;;;;;0.15;0.10;;;25.40;72.70;;;;;;4942865;28;20042;-76
2022/07/28 03:09:11;;;;;;;0.05;0.00;;;25.40;72.60;;;;;;4952173;28;20027;-73
2022/07/28 03:11:52;;;;;;;0.93;0.00;;;25.60;74.90;;;;;;4947878;28;20504;-82
2022/07/28 03:14:19;;;;;;;0.00;0.00;;;25.80;75.50;;;;;;4949751;28;20062;-74
2022/07/28 03:16:47;;;;;;;0.10;0.00;;;25.70;73.80;;;;;;4947307;28;20035;-78
2022/07/28 03:19:14;;;;;;;0.10;0.03;;;25.70;73.60;;;;;;4942337;29;20030;-78
2022/07/28 03:21:42;;;;;;;0.15;0.00;;;25.70;74.80;;;;;;4945013;28;20027;-78
2022/07/28 03:24:10;;;;;;;2.40;0.10;;;25.50;74.00;;;;;;4946944;28;20086;-74
2022/07/28 03:26:48;;;;;;;0.00;0.00;;;25.50;75.40;;;;;;4949787;28;20034;-75
2022/07/28 03:29:16;;;;;;;0.15;0.00;;;25.20;72.50;;;;;;4947298;28;20023;-79
2022/07/28 03:31:46;;;;;;;0.10;0.10;;;24.90;73.50;;;;;;4950368;28;20036;-77
2022/07/28 03:34:15;;;;;;;0.20;0.00;;;24.50;72.70;;;;;;4943835;28;20341;-75
2022/07/28 03:36:49;;;;;;;0.25;0.10;;;23.90;74.30;;;;;;4942202;28;20051;-73
2022/07/28 03:39:17;;;;;;;0.00;0.00;;;23.40;74.20;;;;;;4945289;28;20024;-76
2022/07/28 03:41:46;;;;;;;0.00;0.00;;;22.90;76.20;;;;;;4943715;28;20031;-78
2022/07/28 03:44:15;;;;;;;0.20;0.00;;;22.70;76.00;;;;;;4949138;28;20411;-76
2022/07/28 03:46:46;;;;;;;0.38;0.30;;;22.60;76.30;;;;;;4948362;28;20081;-78
2022/07/28 03:49:14;;;;;;;0.22;0.00;;;22.50;76.50;;;;;;4950503;28;20050;-78
2022/07/28 03:51:41;;;;;;;0.65;0.00;;;22.40;76.80;;;;;;4952767;28;20430;-76
2022/07/28 03:54:09;;;;;;;0.10;0.00;;;22.20;77.60;;;;;;4952271;28;20588;-76
2022/07/28 03:56:40;;;;;;;0.63;0.00;;;21.90;78.60;;;;;;4938067;28;20031;-75
2022/07/28 03:59:10;;;;;;;1.55;0.00;;;21.80;79.60;;;;;;4942509;28;20031;-77
2022/07/28 04:01:37;;;;;;;0.13;0.00;;;21.60;78.80;;;;;;4944621;28;20506;-78
2022/07/28 04:04:05;;;;;;;0.30;0.10;;;21.40;77.50;;;;;;4951898;28;20512;-76
2022/07/28 04:06:32;;;;;;;0.10;0.00;;;21.20;78.30;;;;;;4949376;28;20043;-77
2022/07/28 04:09:00;;;;;;;0.10;0.00;;;21.00;78.90;;;;;;4945645;28;20031;-76
2022/07/28 04:11:27;;;;;;;0.22;0.10;;;20.80;80.20;;;;;;4957198;28;20482;-76
2022/07/28 04:13:56;;;;;;;0.35;0.08;;;20.70;80.80;;;;;;4951631;28;20418;-76
2022/07/28 04:16:24;;;;;;;0.10;0.00;;;20.60;80.90;;;;;;4940323;28;20051;-77
2022/07/28 04:18:51;;;;;;;0.00;0.00;;;20.60;81.20;;;;;;4946988;29;20058;-77
2022/07/28 04:21:20;;;;;;;0.40;0.10;;;20.50;80.50;;;;;;4952436;28;20031;-78
2022/07/28 04:23:48;;;;;;;0.73;0.10;;;20.30;81.10;;;;;;4953742;29;20043;-77
2022/07/28 04:26:16;;;;;;;1.02;0.00;;;20.30;81.70;;;;;;4951477;28;20494;-77
2022/07/28 04:28:44;;;;;;;0.40;0.00;;;20.20;81.70;;;;;;4947167;28;20038;-76
2022/07/28 04:31:15;;;;;;;0.45;0.00;;;20.00;81.90;;;;;;4947473;28;20038;-78
2022/07/28 04:33:43;;;;;;;0.00;0.00;;;20.00;81.90;;;;;;4949173;28;20043;-78
2022/07/28 04:36:16;;;;;;;0.00;0.00;;;20.00;81.00;;;;;;4951640;28;20035;-77
2022/07/28 04:38:44;;;;;;;0.00;0.00;;;20.00;80.10;;;;;;4946327;29;20603;-74
2022/07/28 04:41:18;;;;;;;0.47;0.00;;;19.90;80.60;;;;;;4945169;28;20087;-81
2022/07/28 04:43:45;;;;;;;0.32;0.00;;;19.90;81.40;;;;;;4942482;29;20039;-75
2022/07/28 04:46:13;;;;;;;0.52;0.00;;;19.80;81.90;;;;;;4943530;28;20090;-75
2022/07/28 04:48:40;;;;;;;0.40;0.00;;;19.70;82.40;;;;;;4945526;28;20031;-77
2022/07/28 04:51:08;;;;;;;0.17;0.00;;;19.60;83.30;;;;;;4944522;28;20031;-74
2022/07/28 04:53:35;;;;;;;0.10;0.00;;;19.50;83.60;;;;;;4944838;28;20031;-74
2022/07/28 04:56:06;;;;;;;0.00;0.00;;;19.50;83.90;;;;;;4945544;28;20122;-73
2022/07/28 04:58:34;;;;;;;3.85;0.00;;;19.50;84.90;;;;;;4946208;29;20109;-72
2022/07/28 05:01:01;;;;;;;0.60;0.10;;;19.40;84.70;;;;;;4941588;28;20553;-78
2022/07/28 05:03:32;;;;;;;0.10;0.00;;;19.40;85.10;;;;;;4944241;28;20039;-81
2022/07/28 05:05:59;;;;;;;0.50;0.00;;;19.40;85.40;;;;;;4937857;28;20371;-73
2022/07/28 05:08:30;;;;;;;0.00;0.00;;;19.40;85.60;;;;;;4946279;28;20418;-75
2022/07/28 05:10:58;;;;;;;0.45;0.10;;;19.40;85.50;;;;;;4941745;29;20045;-78
2022/07/28 05:13:25;;;;;;;0.50;0.00;;;19.40;85.40;;;;;;4915511;28;20438;-78
2022/07/28 05:15:53;;;;;;;0.70;0.10;;;19.50;86.20;;;;;;4946502;28;20140;-76
2022/07/28 05:18:20;;;;;;;0.45;0.10;;;19.60;85.60;;;;;;4944410;28;20023;-76
2022/07/28 05:20:50;;;;;;;0.20;0.03;;;19.70;86.20;;;;;;4941247;28;20038;-78
2022/07/28 05:23:18;;;;;;;1.63;0.05;;;19.80;86.10;;;;;;4934315;29;20046;-74
2022/07/28 05:25:46;;;;;;;0.38;0.00;;;19.80;85.20;;;;;;4946407;28;20406;-75
2022/07/28 05:28:13;;;;;;;0.15;0.08;;;19.80;85.30;;;;;;4946613;29;20114;-78
2022/07/28 05:30:41;;;;;;;0.45;0.10;;;19.80;85.00;;;;;;4934950;29;20032;-74
2022/07/28 05:33:08;;;;;;;0.03;0.00;;;19.80;85.20;;;;;;4951786;28;20067;-74
2022/07/28 05:35:36;;;;;;;0.65;0.10;;;19.90;84.30;;;;;;4950694;29;20031;-77
2022/07/28 05:38:03;;;;;;;1.20;0.10;;;19.80;84.20;;;;;;4948774;28;20039;-74
2022/07/28 05:40:31;;;;;;;0.00;0.00;;;19.70;84.50;;;;;;4943780;29;20035;-75
2022/07/28 05:42:58;;;;;;;1.00;0.08;;;19.70;84.50;;;;;;4942306;28;20035;-74
2022/07/28 05:45:26;;;;;;;1.38;0.20;;;19.60;84.30;;;;;;4952143;28;20031;-75
2022/07/28 05:47:53;;;;;;;0.20;0.10;;;19.50;84.40;;;;;;4950348;28;20100;-76
2022/07/28 05:50:24;;;;;;;1.85;0.20;;;19.40;85.00;;;;;;4952536;28;20505;-78
2022/07/28 05:52:52;;;;;;;0.50;0.10;;;19.20;84.90;;;;;;4951054;28;20045;-77
2022/07/28 05:55:20;;;;;;;0.57;0.10;;;18.90;85.70;;;;;;4949968;29;20451;-76
2022/07/28 05:57:47;;;;;;;0.45;0.05;;;18.70;86.50;;;;;;4948340;28;20087;-75
2022/07/28 06:00:18;;;;;;;2.03;0.00;;;18.50;85.70;;;;;;4940159;29;20266;-75
2022/07/28 06:03:01;;;;;;;0.55;0.10;;;18.40;84.80;;;;;;4952374;28;20043;-79
2022/07/28 06:05:30;;;;;;;0.57;0.00;;;18.20;84.90;;;;;;4944949;29;20042;-78
2022/07/28 06:07:59;;;;;;;3.10;0.10;;;18.00;85.20;;;;;;4947742;28;20130;-82
2022/07/28 06:10:57;;;;;;;1.88;0.00;;;17.90;85.70;;;;;;4952545;29;20019;-77
2022/07/28 06:13:15;;;;;;;0.55;0.55;;;17.70;86.70;;;;;;4950887;28;20535;-81
2022/07/28 06:15:45;;;;;;;1.88;0.70;;;17.70;86.00;;;;;;4952959;28;20038;-79
2022/07/28 06:18:12;;;;;;;0.57;0.10;;;17.70;86.50;;;;;;4931800;29;20097;-75
2022/07/28 06:20:40;;;;;;;0.10;0.10;;;17.70;86.50;;;;;;4950746;28;20039;-77
2022/07/28 06:23:08;;;;;;;1.58;0.10;;;17.60;87.10;;;;;;4947909;28;20540;-74
2022/07/28 06:25:35;;;;;;;0.65;0.10;;;17.60;87.50;;;;;;4943198;28;20055;-73
2022/07/28 06:28:03;;;;;;;0.85;0.10;;;17.70;87.50;;;;;;4950219;28;20027;-79
2022/07/28 06:30:31;;;;;;;0.55;0.08;;;17.70;87.80;;;;;;4943652;28;20031;-76
2022/07/28 06:32:59;;;;;;;0.93;0.13;;;17.70;87.70;;;;;;4950996;28;20027;-83
2022/07/28 06:35:26;;;;;;;1.17;0.30;;;17.70;88.80;;;;;;4949166;28;20031;-75
2022/07/28 06:37:54;;;;;;;0.20;0.20;;;17.60;87.90;;;;;;4949388;28;20502;-75
2022/07/28 06:40:22;;;;;;;0.98;0.40;;;17.60;88.30;;;;;;4945386;28;20031;-78
2022/07/28 06:42:50;;;;;;;1.27;0.30;;;17.60;88.60;;;;;;4950757;29;20039;-74
2022/07/28 06:45:21;;;;;;;3.50;0.73;;;17.60;88.70;;;;;;4943920;28;20031;-77
2022/07/28 06:47:52;;;;;;;2.63;0.60;;;17.70;88.80;;;;;;4947092;29;20501;-77
2022/07/28 06:50:21;;;;;;;2.75;0.60;;;17.70;89.30;;;;;;4949758;28;20186;-74
2022/07/28 06:52:48;;;;;;;1.63;0.15;;;17.70;88.70;;;;;;4949866;28;20058;-77
2022/07/28 06:55:16;;;;;;;1.13;0.20;;;17.70;88.50;;;;;;4939894;28;20034;-74
2022/07/28 06:57:43;;;;;;;0.55;0.20;;;17.60;89.10;;;;;;4946951;28;20478;-74
2022/07/28 07:00:13;;;;;;;0.22;0.20;;;17.60;88.70;;;;;;4951648;28;20110;-76
2022/07/28 07:02:41;;;;;;;1.80;0.20;;;17.50;88.80;;;;;;4948907;29;20027;-76
2022/07/28 07:05:11;;;;;;;0.38;0.10;;;17.50;89.10;;;;;;4950880;29;20092;-73
2022/07/28 07:07:38;;;;;;;0.65;0.10;;;17.50;88.80;;;;;;4941991;28;20390;-74
2022/07/28 07:10:07;;;;;;;0.77;0.00;;;17.40;88.80;;;;;;4947923;29;20035;-74
2022/07/28 07:12:35;;;;;;;1.75;0.10;;;17.30;88.30;;;;;;4946164;28;20478;-75
2022/07/28 07:15:05;;;;;;;0.15;0.00;;;17.30;88.80;;;;;;4950027;29;21009;-76
2022/07/28 07:17:32;;;;;;;4.00;0.13;;;17.20;89.10;;;;;;4944679;28;20044;-73
2022/07/28 07:20:00;;;;;;;0.15;0.00;;;17.20;89.40;;;;;;4947057;28;20062;-74
2022/07/28 07:22:27;;;;;;;0.35;0.10;;;17.10;89.40;;;;;;4947969;28;20034;-73
2022/07/28 07:24:55;;;;;;;1.88;0.32;;;17.00;89.40;;;;;;4943605;28;20031;-76
2022/07/28 07:27:22;;;;;;;3.45;0.35;;;17.00;90.00;;;;;;4949404;29;20621;-74
2022/07/28 07:29:49;;;;;;;0.68;0.30;;;16.90;90.20;;;;;;4947445;28;20027;-76
2022/07/28 07:32:17;;;;;;;1.08;0.30;;;16.90;90.50;;;;;;4950772;28;20035;-74
2022/07/28 07:34:44;;;;;;;4.25;0.90;;;16.80;90.40;;;;;;4950525;28;20118;-75
2022/07/28 07:37:13;;;;;;;4.68;2.33;;;16.70;90.50;;;;;;4943321;28;20639;-76
2022/07/28 07:39:42;;;;;;;3.72;1.52;;;16.70;90.60;;;;;;4940813;28;20031;-74
2022/07/28 07:42:12;;;;;;;4.57;1.08;;;16.70;90.70;;;;;;4940556;29;20474;-78
2022/07/28 07:44:39;;;;;;;2.80;0.70;;;16.60;90.80;;;;;;4941471;28;20031;-76
2022/07/28 07:47:09;;;;;;;11.27;6.63;;;16.60;90.80;;;;;;4946566;29;20387;-75
2022/07/28 07:49:40;;;;;;;8.48;5.10;;;16.60;91.10;;;;;;4940691;28;20394;-77
2022/07/28 07:52:07;;;;;;;7.65;3.33;;;16.50;91.20;;;;;;4941938;29;20023;-76
2022/07/28 07:54:34;;;;;;;5.70;2.85;;;16.50;91.00;;;;;;4941551;28;20397;-77
2022/07/28 07:57:02;;;;;;;8.52;4.65;;;16.40;91.20;;;;;;4942586;28;20398;-77
2022/07/28 07:59:47;;;;;;;5.13;3.47;;;16.30;91.40;;;;;;4941957;28;20554;-78
2022/07/28 08:02:14;;;;;;;4.93;1.40;;;16.30;91.50;;;;;;4947284;29;20027;-78
2022/07/28 08:04:42;;;;;;;1.80;0.80;;;16.20;91.60;;;;;;4947582;28;20070;-77
2022/07/28 08:07:09;;;;;;;1.55;0.60;;;16.10;91.80;;;;;;4949730;28;20040;-76
2022/07/28 08:09:36;;;;;;;0.10;0.10;;;16.00;91.90;;;;;;4937983;29;20038;-77
2022/07/28 08:12:04;;;;;;;1.52;0.38;;;15.90;92.10;;;;;;4941447;28;20031;-77
2022/07/28 08:14:32;;;;;;;0.52;0.30;;;15.80;92.30;;;;;;4941870;28;20049;-75
2022/07/28 08:16:59;;;;;;;0.40;0.30;;;15.60;92.30;;;;;;4939942;29;20067;-76
2022/07/28 08:19:27;;;;;;;0.60;0.30;;;15.60;92.80;;;;;;4948796;28;20035;-79
2022/07/28 08:21:54;;;;;;;0.25;0.10;;;15.50;92.80;;;;;;4950473;29;20170;-79
2022/07/28 08:24:25;;;;;;;0.77;0.15;;;15.40;92.70;;;;;;4944286;28;20041;-79
2022/07/28 08:26:52;;;;;;;0.43;0.30;;;15.40;93.10;;;;;;4942353;28;21303;-78
2022/07/28 08:29:20;;;;;;;0.85;0.28;;;15.40;93.30;;;;;;4940991;28;20057;-80
2022/07/28 08:31:47;;;;;;;0.45;0.20;;;15.30;93.80;;;;;;4947428;29;20041;-77
2022/07/28 08:34:15;;;;;;;3.45;1.73;;;15.20;93.70;;;;;;4941181;28;20076;-80
2022/07/28 08:36:43;;;;;;;6.35;3.67;;;15.10;93.80;;;;;;4944608;28;20027;-78
2022/07/28 08:39:20;;;;;;;17.95;8.90;;;15.10;94.00;;;;;;4947214;28;20053;-81
2022/07/28 08:42:11;;;;;;;12.77;7.88;;;15.10;94.00;;;;;;4939882;29;20066;-79
2022/07/28 08:44:38;;;;;;;8.88;5.82;;;15.10;94.10;;;;;;4939590;28;20031;-81
2022/07/28 08:47:10;;;;;;;4.50;3.17;;;15.10;94.00;;;;;;4938991;29;20494;-77
2022/07/28 08:49:42;;;;;;;8.50;4.70;;;15.20;94.20;;;;;;4935465;28;20037;-80
2022/07/28 08:52:13;;;;;;;11.70;6.60;;;15.20;94.00;;;;;;4949129;28;20027;-82
2022/07/28 08:54:51;;;;;;;8.35;5.15;;;15.30;94.00;;;;;;4946476;28;20043;-79
2022/07/28 08:57:34;;;;;;;14.00;7.85;;;15.20;93.90;;;;;;4953110;29;20024;-79
2022/07/28 09:00:02;;;;;;;6.75;4.68;;;15.30;94.00;;;;;;4952325;28;20035;-76
2022/07/28 09:02:31;;;;;;;5.53;3.53;;;15.30;93.90;;;;;;4943490;29;20123;-80
2022/07/28 09:05:03;;;;;;;8.27;5.28;;;15.30;94.10;;;;;;4950706;28;20359;-80
2022/07/28 09:07:32;;;;;;;6.75;4.10;;;15.20;94.00;;;;;;4943749;28;20043;-79
2022/07/28 09:10:02;;;;;;;9.85;6.15;;;15.20;94.00;;;;;;4950891;29;20114;-77
2022/07/28 09:12:29;;;;;;;10.27;4.82;;;15.20;94.30;;;;;;4957261;28;20036;-78
2022/07/28 09:14:57;;;;;;;5.65;3.25;;;15.10;94.30;;;;;;4951393;29;20126;-77
2022/07/28 09:17:24;;;;;;;10.65;6.00;;;15.10;94.50;;;;;;4952586;28;20093;-79
2022/07/28 09:19:52;;;;;;;4.07;1.90;;;15.00;94.60;;;;;;4940550;28;20027;-79
2022/07/28 09:22:19;;;;;;;3.90;2.92;;;14.90;94.60;;;;;;4948420;28;20016;-79
2022/07/28 09:24:47;;;;;;;2.13;1.02;;;14.80;94.80;;;;;;4943572;28;20055;-79
2022/07/28 09:27:15;;;;;;;5.85;4.85;;;14.80;94.80;;;;;;4947542;28;20430;-76
2022/07/28 09:29:57;;;;;;;2.80;2.00;;;14.70;94.90;;;;;;4947222;28;20082;-79
2022/07/28 09:32:26;;;;;;;3.03;0.88;;;14.60;95.10;;;;;;4952792;29;20113;-76
2022/07/28 09:34:54;;;;;;;1.95;0.68;;;14.60;95.20;;;;;;4946388;28;20047;-79
2022/07/28 09:37:26;;;;;;;2.70;2.50;;;14.50;95.20;;;;;;4952891;28;20490;-78
2022/07/28 09:39:58;;;;;;;2.20;1.75;;;14.50;95.40;;;;;;4952233;28;20410;-78
2022/07/28 09:42:26;;;;;;;1.08;0.60;;;14.40;95.60;;;;;;4936003;28;20381;-76
2022/07/28 09:45:07;;;;;;;0.80;0.40;;;14.40;95.70;;;;;;4953406;29;20426;-79
2022/07/28 09:47:39;;;;;;;0.47;0.25;;;14.30;95.70;;;;;;4952162;28;20039;-78
2022/07/28 09:50:07;;;;;;;0.55;0.47;;;14.30;95.90;;;;;;4943180;28;20036;-79
2022/07/28 09:52:37;;;;;;;0.77;0.30;;;14.20;95.90;;;;;;4952883;29;20483;-79
2022/07/28 09:55:15;;;;;;;0.73;0.35;;;14.20;96.00;;;;;;4963199;28;20558;-78
2022/07/28 09:57:42;;;;;;;2.63;0.30;;;14.10;96.10;;;;;;4945842;28;20407;-79
2022/07/28 10:00:11;;;;;;;0.45;0.32;;;14.10;96.30;;;;;;4942567;28;20024;-76
2022/07/28 10:02:39;;;;;;;2.25;0.50;;;14.00;96.40;;;;;;4944227;29;20027;-77
2022/07/28 10:05:07;;;;;;;2.25;0.80;;;14.00;96.40;;;;;;4947643;28;20534;-76
2022/07/28 10:07:51;;;;;;;1.85;1.00;;;13.90;96.50;;;;;;4951954;28;20078;-75
2022/07/28 10:10:22;;;;;;;1.48;0.50;;;13.90;96.60;;;;;;4942346;28;20034;-75
2022/07/28 10:12:49;;;;;;;1.02;0.47;;;13.80;96.90;;;;;;4951996;29;20038;-75
2022/07/28 10:18:05;;;;;;;0.35;0.10;;;13.70;97.10;;;;;;4945936;28;20047;-76
2022/07/28 10:20:33;;;;;;;1.10;0.50;;;13.70;97.30;;;;;;4940883;28;20494;-77
2022/07/28 10:23:10;;;;;;;0.38;0.20;;;13.70;97.30;;;;;;4948493;29;20208;-78
2022/07/28 10:25:40;;;;;;;0.70;0.30;;;13.60;97.40;;;;;;4946637;28;20125;-76
2022/07/28 10:28:10;;;;;;;0.30;0.20;;;13.60;97.40;;;;;;4941200;28;20035;-75
2022/07/28 10:30:40;;;;;;;0.20;0.10;;;13.60;97.40;;;;;;4947515;28;20042;-76
2022/07/28 10:33:14;;;;;;;0.65;0.20;;;13.60;97.30;;;;;;4951732;29;20043;-77
2022/07/28 10:35:42;;;;;;;0.30;0.20;;;13.60;97.40;;;;;;4947410;28;20043;-78
2022/07/28 10:38:12;;;;;;;0.77;0.20;;;13.60;97.40;;;;;;4951463;28;20545;-75
2022/07/28 10:40:46;;;;;;;2.03;0.50;;;13.50;97.40;;;;;;4946943;28;20038;-76
2022/07/28 10:43:14;;;;;;;1.00;0.40;;;13.50;97.40;;;;;;4944888;28;20108;-75
2022/07/28 10:45:43;;;;;;;0.47;0.40;;;13.50;97.50;;;;;;4945155;28;20023;-74
2022/07/28 10:48:11;;;;;;;0.20;0.20;;;13.50;97.50;;;;;;4946866;28;20063;-75
2022/07/28 10:50:39;;;;;;;1.88;0.30;;;13.50;97.60;;;;;;4944156;28;20513;-74
2022/07/28 10:53:11;;;;;;;0.88;0.40;;;13.50;97.60;;;;;;4946002;28;20031;-74
2022/07/28 10:55:48;;;;;;;1.23;0.63;;;13.50;97.70;;;;;;4950047;29;20147;-75
2022/07/28 10:58:37;;;;;;;1.88;0.30;;;13.50;97.70;;;;;;4950165;28;20021;-76
2022/07/28 11:01:04;;;;;;;0.52;0.30;;;13.50;97.80;;;;;;4946524;28;20032;-77
2022/07/28 11:03:46;;;;;;;1.10;0.30;;;13.50;97.90;;;;;;4945010;28;20027;-78
2022/07/28 11:06:33;;;;;;;0.30;0.20;;;13.50;98.00;;;;;;4944883;29;20038;-76
2022/07/28 11:09:21;;;;;;;0.25;0.13;;;13.40;98.00;;;;;;4939809;28;20030;-76
2022/07/28 11:11:50;;;;;;;0.65;0.30;;;13.40;98.20;;;;;;4950266;29;20098;-76
2022/07/28 11:14:23;;;;;;;0.50;0.40;;;13.30;98.30;;;;;;4943232;28;20032;-77
2022/07/28 11:17:10;;;;;;;0.60;0.47;;;13.30;98.70;;;;;;4939443;28;20086;-76
2022/07/28 11:19:44;;;;;;;0.20;0.20;;;13.20;98.80;;;;;;4942510;28;20023;-76
2022/07/28 11:22:20;;;;;;;0.75;0.57;;;13.10;99.10;;;;;;4949743;28;20040;-75
2022/07/28 11:25:00;;;;;;;0.30;0.25;;;13.00;99.30;;;;;;4942078;28;20027;-77
2022/07/28 11:27:45;;;;;;;0.73;0.30;;;13.00;99.40;;;;;;4950657;28;20066;-76
2022/07/28 11:30:44;;;;;;;1.92;0.20;;;13.00;99.50;;;;;;4949386;28;20035;-76
2022/07/28 11:33:11;;;;;;;0.47;0.20;;;13.00;99.60;;;;;;4948846;28;20039;-81
2022/07/28 11:35:41;;;;;;;0.20;0.20;;;13.00;99.70;;;;;;4958591;28;20031;-82
2022/07/28 11:38:11;;;;;;;0.20;0.10;;;13.10;99.80;;;;;;4942321;28;20054;-77
2022/07/28 11:40:46;;;;;;;0.77;0.65;;;13.00;99.80;;;;;;4947837;28;20027;-79
2022/07/28 11:43:22;;;;;;;0.50;0.30;;;13.10;99.90;;;;;;4946071;28;20112;-80
2022/07/28 11:46:14;;;;;;;0.63;0.20;;;13.10;99.90;;;;;;4948404;28;20134;-81
2022/07/28 11:48:44;;;;;;;0.32;0.20;;;13.00;99.90;;;;;;4938830;28;20054;-82
2022/07/28 11:51:14;;;;;;;0.63;0.40;;;13.10;99.90;;;;;;4945668;28;20038;-76
2022/07/28 11:53:49;;;;;;;2.17;0.20;;;13.10;99.90;;;;;;4948826;28;20043;-76
2022/07/28 11:56:34;;;;;;;0.52;0.30;;;13.10;99.90;;;;;;4941816;29;20038;-81
2022/07/28 11:59:09;;;;;;;0.43;0.30;;;13.10;99.90;;;;;;4944475;28;20025;-78
2022/07/28 12:01:37;;;;;;;1.17;0.40;;;13.10;99.80;;;;;;4936178;28;20044;-78
2022/07/28 12:04:14;;;;;;;0.52;0.35;;;13.20;99.70;;;;;;4939152;28;20039;-78
2022/07/28 12:06:42;;;;;;;1.20;0.30;;;13.30;99.50;;;;;;4937311;29;20039;-81
2022/07/28 12:09:13;;;;;;;0.60;0.20;;;13.30;99.40;;;;;;4939192;29;20023;-76
2022/07/28 12:11:42;;;;;;;1.10;0.52;;;13.30;99.30;;;;;;4944286;28;20047;-78
2022/07/28 12:14:11;;;;;;;1.08;0.40;;;13.30;99.50;;;;;;4942206;29;20110;-77
2022/07/28 12:16:44;;;;;;;0.93;0.40;;;13.30;99.70;;;;;;4944599;28;20071;-79
2022/07/28 12:19:15;;;;;;;3.25;0.60;;;13.20;99.90;;;;;;4942185;29;20035;-77
2022/07/28 12:21:50;;;;;;;1.40;0.47;;;13.20;99.90;;;;;;4938784;28;20410;-80
2022/07/28 12:24:32;;;;;;;1.83;0.50;;;13.20;99.90;;;;;;4936915;28;20035;-79
2022/07/28 12:27:00;;;;;;;0.50;0.30;;;13.20;99.90;;;;;;4942588;28;20039;-77
2022/07/28 12:29:30;;;;;;;0.63;0.38;;;13.20;99.90;;;;;;4941673;28;20063;-76
2022/07/28 12:31:58;;;;;;;0.85;0.68;;;13.20;99.90;;;;;;4949545;28;20046;-76
2022/07/28 12:34:27;;;;;;;0.43;0.30;;;13.20;99.90;;;;;;4950346;28;20391;-77
2022/07/28 12:36:58;;;;;;;0.28;0.10;;;13.20;99.90;;;;;;4953388;28;20064;-77
2022/07/28 12:39:26;;;;;;;0.40;0.10;;;13.30;99.90;;;;;;4944147;28;20027;-76
2022/07/28 12:42:06;;;;;;;0.65;0.38;;;13.30;99.90;;;;;;4954490;28;20090;-78
2022/07/28 12:44:34;;;;;;;0.95;0.20;;;13.40;99.90;;;;;;4948405;29;20032;-77
2022/07/28 12:47:02;;;;;;;0.93;0.45;;;13.40;99.90;;;;;;4941979;28;20051;-78
2022/07/28 12:49:30;;;;;;;1.25;0.52;;;13.40;99.90;;;;;;4948164;28;20055;-77
2022/07/28 12:51:59;;;;;;;1.05;0.40;;;13.40;99.90;;;;;;4944711;28;20126;-77
2022/07/28 12:54:37;;;;;;;0.52;0.20;;;13.40;99.90;;;;;;4950140;29;20150;-76
2022/07/28 12:57:04;;;;;;;0.22;0.17;;;13.40;99.90;;;;;;4953715;29;20034;-77
2022/07/28 12:59:34;;;;;;;1.45;0.20;;;13.40;99.90;;;;;;4944076;28;20039;-78
2022/07/28 13:02:03;;;;;;;0.28;0.15;;;13.50;99.90;;;;;;4947454;28;20063;-74
2022/07/28 13:04:44;;;;;;;0.10;0.10;;;13.50;99.90;;;;;;4939439;28;20118;-79
2022/07/28 13:07:20;;;;;;;1.00;0.30;;;13.50;99.90;;;;;;4924279;29;20219;-80